createdAt,value
2019-05-20T00:00:23.421Z,935.76
2019-05-20T00:01:23.394Z,935.75
2019-05-20T00:02:27.988Z,935.75
2019-05-20T00:03:23.395Z,935.80
2019-05-20T00:04:23.418Z,935.81
2019-05-20T00:05:23.696Z,935.79
2019-05-20T00:06:23.360Z,935.81
2019-05-20T00:07:23.345Z,935.84
2019-05-20T00:08:23.371Z,935.84
2019-05-20T00:09:23.315Z,935.83
2019-05-20T00:10:23.322Z,935.86
2019-05-20T00:11:23.494Z,935.91
2019-05-20T00:12:23.295Z,935.93
2019-05-20T00:13:23.272Z,935.90
2019-05-20T00:14:23.280Z,935.93
2019-05-20T00:15:23.259Z,935.93
2019-05-20T00:16:23.254Z,935.90
2019-05-20T00:17:23.562Z,935.89
2019-05-20T00:18:23.243Z,935.88
2019-05-20T00:19:23.242Z,935.90
2019-05-20T00:20:23.219Z,935.90
2019-05-20T00:21:23.256Z,935.89
2019-05-20T00:22:23.235Z,935.89
2019-05-20T00:23:23.517Z,935.92
2019-05-20T00:24:23.197Z,935.89
2019-05-20T00:25:23.160Z,935.91
2019-05-20T00:26:23.163Z,935.93
2019-05-20T00:27:23.186Z,935.90
2019-05-20T00:28:23.139Z,935.90
2019-05-20T00:29:23.437Z,935.89
2019-05-20T00:30:23.133Z,935.92
2019-05-20T00:31:23.106Z,935.93
2019-05-20T00:32:23.111Z,935.97
2019-05-20T00:33:23.099Z,935.98
2019-05-20T00:34:34.564Z,936.00
2019-05-20T00:35:23.081Z,935.97
2019-05-20T00:36:23.060Z,935.96
2019-05-20T00:37:23.055Z,935.95
2019-05-20T00:38:23.039Z,935.89
2019-05-20T00:39:23.312Z,935.91
2019-05-20T00:40:23.072Z,935.91
2019-05-20T00:41:23.030Z,935.94
2019-05-20T00:42:23.027Z,935.90
2019-05-20T00:43:23.035Z,935.91
2019-05-20T00:44:23.273Z,935.92
2019-05-20T00:45:23.004Z,935.92
2019-05-20T00:46:22.980Z,935.91
2019-05-20T00:47:22.991Z,935.93
2019-05-20T00:48:22.969Z,935.90
2019-05-20T00:49:23.275Z,935.92
2019-05-20T00:50:22.923Z,935.91
2019-05-20T00:51:22.935Z,935.91
2019-05-20T00:52:22.926Z,935.86
2019-05-20T00:53:22.913Z,935.85
2019-05-20T00:54:23.162Z,935.80
2019-05-20T00:55:22.886Z,935.84
2019-05-20T00:56:22.895Z,935.83
2019-05-20T00:57:22.893Z,935.81
2019-05-20T00:58:22.886Z,935.80
2019-05-20T00:59:23.194Z,935.81
2019-05-20T01:00:22.851Z,935.79
2019-05-20T01:01:22.820Z,935.78
2019-05-20T01:02:22.810Z,935.76
2019-05-20T01:03:22.808Z,935.76
2019-05-20T01:04:23.345Z,935.72
2019-05-20T01:05:22.811Z,935.79
2019-05-20T01:06:22.830Z,935.77
2019-05-20T01:07:22.787Z,935.74
2019-05-20T01:08:22.777Z,935.77
2019-05-20T01:09:23.203Z,935.71
2019-05-20T01:10:22.749Z,935.67
2019-05-20T01:11:22.753Z,935.67
2019-05-20T01:12:22.711Z,935.65
2019-05-20T01:13:22.722Z,935.66
2019-05-20T01:14:23.211Z,935.66
2019-05-20T01:15:22.700Z,935.62
2019-05-20T01:16:22.701Z,935.63
2019-05-20T01:17:22.688Z,935.62
2019-05-20T01:18:22.659Z,935.61
2019-05-20T01:19:23.248Z,935.62
2019-05-20T01:20:22.653Z,935.65
2019-05-20T01:21:22.652Z,935.65
2019-05-20T01:22:22.656Z,935.65
2019-05-20T01:23:22.625Z,935.68
2019-05-20T01:24:22.597Z,935.67
2019-05-20T01:25:23.250Z,935.68
2019-05-20T01:26:22.600Z,935.67
2019-05-20T01:27:22.608Z,935.60
2019-05-20T01:28:22.579Z,935.62
2019-05-20T01:29:22.553Z,935.64
2019-05-20T01:30:22.560Z,935.62
2019-05-20T01:31:23.061Z,935.62
2019-05-20T01:32:22.535Z,935.59
2019-05-20T01:33:22.534Z,935.62
2019-05-20T01:34:22.522Z,935.61
2019-05-20T01:35:22.484Z,935.59
2019-05-20T01:36:22.511Z,935.60
2019-05-20T01:37:23.502Z,935.61
2019-05-20T01:38:22.477Z,935.57
2019-05-20T01:39:22.480Z,935.58
2019-05-20T01:40:22.465Z,935.62
2019-05-20T01:41:22.446Z,935.54
2019-05-20T01:42:22.476Z,935.56
2019-05-20T01:43:22.937Z,935.58
2019-05-20T01:44:22.438Z,935.54
2019-05-20T01:45:22.404Z,935.55
2019-05-20T01:46:22.396Z,935.58
2019-05-20T01:47:22.387Z,935.55
2019-05-20T01:48:22.383Z,935.58
2019-05-20T01:49:22.915Z,935.55
2019-05-20T01:50:22.369Z,935.58
2019-05-20T01:51:22.378Z,935.58
2019-05-20T01:52:22.316Z,935.57
2019-05-20T01:53:22.337Z,935.54
2019-05-20T01:54:22.326Z,935.55
2019-05-20T01:55:22.757Z,935.53
2019-05-20T01:56:22.314Z,935.54
2019-05-20T01:57:22.349Z,935.52
2019-05-20T01:58:22.292Z,935.52
2019-05-20T01:59:22.289Z,935.49
2019-05-20T02:00:22.269Z,935.48
2019-05-20T02:01:22.615Z,935.47
2019-05-20T02:02:22.233Z,935.48
2019-05-20T02:03:31.132Z,935.47
2019-05-20T02:04:22.216Z,935.47
2019-05-20T02:05:22.217Z,935.46
2019-05-20T02:06:22.662Z,935.44
2019-05-20T02:07:22.196Z,935.43
2019-05-20T02:08:22.191Z,935.40
2019-05-20T02:09:22.168Z,935.39
2019-05-20T02:10:22.180Z,935.44
2019-05-20T02:11:22.559Z,935.40
2019-05-20T02:12:22.161Z,935.35
2019-05-20T02:13:22.149Z,935.40
2019-05-20T02:14:22.220Z,935.36
2019-05-20T02:15:22.130Z,935.39
2019-05-20T02:16:22.366Z,935.39
2019-05-20T02:17:22.099Z,935.38
2019-05-20T02:18:22.101Z,935.40
2019-05-20T02:19:22.079Z,935.42
2019-05-20T02:20:22.080Z,935.41
2019-05-20T02:21:22.472Z,935.39
2019-05-20T02:22:22.048Z,935.41
2019-05-20T02:23:22.053Z,935.41
2019-05-20T02:24:22.011Z,935.39
2019-05-20T02:25:22.072Z,935.41
2019-05-20T02:26:22.353Z,935.38
2019-05-20T02:27:22.003Z,935.36
2019-05-20T02:28:22.003Z,935.39
2019-05-20T02:29:21.989Z,935.36
2019-05-20T02:30:21.976Z,935.37
2019-05-20T02:31:22.261Z,935.39
2019-05-20T02:32:21.957Z,935.40
2019-05-20T02:33:21.958Z,935.40
2019-05-20T02:34:21.928Z,935.39
2019-05-20T02:35:21.921Z,935.36
2019-05-20T02:36:22.330Z,935.35
2019-05-20T02:37:21.885Z,935.33
2019-05-20T02:38:21.916Z,935.30
2019-05-20T02:39:26.014Z,935.31
2019-05-20T02:40:21.890Z,935.32
2019-05-20T02:41:22.192Z,935.35
2019-05-20T02:42:21.877Z,935.28
2019-05-20T02:43:21.860Z,935.33
2019-05-20T02:44:21.831Z,935.28
2019-05-20T02:45:21.884Z,935.25
2019-05-20T02:46:22.143Z,935.24
2019-05-20T02:47:21.803Z,935.28
2019-05-20T02:48:21.815Z,935.21
2019-05-20T02:49:21.807Z,935.18
2019-05-20T02:50:21.787Z,935.19
2019-05-20T02:51:22.167Z,935.19
2019-05-20T02:52:21.781Z,935.17
2019-05-20T02:53:21.748Z,935.15
2019-05-20T02:54:21.756Z,935.12
2019-05-20T02:55:21.760Z,935.11
2019-05-20T02:56:21.741Z,935.14
2019-05-20T02:57:21.963Z,935.11
2019-05-20T02:58:21.724Z,935.08
2019-05-20T02:59:21.700Z,935.10
2019-05-20T03:00:21.725Z,935.07
2019-05-20T03:01:22.191Z,935.11
2019-05-20T03:02:21.678Z,935.12
2019-05-20T03:03:21.970Z,935.10
2019-05-20T03:04:21.640Z,935.10
2019-05-20T03:05:21.625Z,935.11
2019-05-20T03:06:21.685Z,935.10
2019-05-20T03:07:21.622Z,935.12
2019-05-20T03:08:21.616Z,935.13
2019-05-20T03:09:22.042Z,935.13
2019-05-20T03:10:21.594Z,935.13
2019-05-20T03:11:21.612Z,935.15
2019-05-20T03:12:21.588Z,935.14
2019-05-20T03:13:21.554Z,935.16
2019-05-20T03:14:21.543Z,935.20
2019-05-20T03:15:22.063Z,935.17
2019-05-20T03:16:21.519Z,935.19
2019-05-20T03:17:21.568Z,935.19
2019-05-20T03:18:21.532Z,935.25
2019-05-20T03:19:21.503Z,935.25
2019-05-20T03:20:21.489Z,935.24
2019-05-20T03:21:21.681Z,935.23
2019-05-20T03:22:21.487Z,935.21
2019-05-20T03:23:21.471Z,935.25
2019-05-20T03:24:21.448Z,935.25
2019-05-20T03:25:21.438Z,935.25
2019-05-20T03:26:21.422Z,935.26
2019-05-20T03:27:21.622Z,935.22
2019-05-20T03:28:21.428Z,935.21
2019-05-20T03:29:21.396Z,935.23
2019-05-20T03:30:21.446Z,935.28
2019-05-20T03:31:21.450Z,935.30
2019-05-20T03:32:21.879Z,935.30
2019-05-20T03:33:21.370Z,935.32
2019-05-20T03:34:43.992Z,935.34
2019-05-20T03:35:21.394Z,935.32
2019-05-20T03:36:21.342Z,935.31
2019-05-20T03:37:21.321Z,935.28
2019-05-20T03:38:21.695Z,935.30
2019-05-20T03:39:21.312Z,935.31
2019-05-20T03:40:21.298Z,935.30
2019-05-20T03:41:21.284Z,935.29
2019-05-20T03:42:21.275Z,935.27
2019-05-20T03:43:21.279Z,935.28
2019-05-20T03:44:21.461Z,935.29
2019-05-20T03:45:21.292Z,935.28
2019-05-20T03:46:21.242Z,935.26
2019-05-20T03:47:21.263Z,935.29
2019-05-20T03:48:21.256Z,935.26
2019-05-20T03:49:21.611Z,935.26
2019-05-20T03:50:21.201Z,935.27
2019-05-20T03:51:21.214Z,935.26
2019-05-20T03:52:21.182Z,935.25
2019-05-20T03:53:21.202Z,935.25
2019-05-20T03:54:21.508Z,935.27
2019-05-20T03:55:21.161Z,935.26
2019-05-20T03:56:21.145Z,935.21
2019-05-20T03:57:21.139Z,935.25
2019-05-20T03:58:21.139Z,935.22
2019-05-20T03:59:21.566Z,935.25
2019-05-20T04:00:21.116Z,935.24
2019-05-20T04:01:21.105Z,935.24
2019-05-20T04:02:21.081Z,935.18
2019-05-20T04:03:21.080Z,935.18
2019-05-20T04:04:24.853Z,935.22
2019-05-20T04:05:21.105Z,935.20
2019-05-20T04:06:21.080Z,935.22
2019-05-20T04:07:21.076Z,935.20
2019-05-20T04:08:21.045Z,935.22
2019-05-20T04:09:21.221Z,935.16
2019-05-20T04:10:21.003Z,935.17
2019-05-20T04:11:21.012Z,935.15
2019-05-20T04:12:21.026Z,935.13
2019-05-20T04:13:20.961Z,935.12
2019-05-20T04:14:21.178Z,935.06
2019-05-20T04:15:21.021Z,935.04
2019-05-20T04:16:20.940Z,935.08
2019-05-20T04:17:20.931Z,935.04
2019-05-20T04:18:20.945Z,935.10
2019-05-20T04:19:21.403Z,935.11
2019-05-20T04:20:20.925Z,935.06
2019-05-20T04:21:20.911Z,935.05
2019-05-20T04:22:20.910Z,935.03
2019-05-20T04:23:20.887Z,935.02
2019-05-20T04:24:20.863Z,934.98
2019-05-20T04:25:21.126Z,934.97
2019-05-20T04:26:20.890Z,934.94
2019-05-20T04:27:20.856Z,934.90
2019-05-20T04:28:20.860Z,934.88
2019-05-20T04:29:20.836Z,934.88
2019-05-20T04:30:21.281Z,934.88
2019-05-20T04:31:20.830Z,934.88
2019-05-20T04:32:20.797Z,934.90
2019-05-20T04:33:20.787Z,934.89
2019-05-20T04:34:20.763Z,934.87
2019-05-20T04:35:23.168Z,934.87
2019-05-20T04:36:21.104Z,934.87
2019-05-20T04:37:20.748Z,934.92
2019-05-20T04:38:20.735Z,934.92
2019-05-20T04:39:20.731Z,934.94
2019-05-20T04:40:20.752Z,934.97
2019-05-20T04:41:20.724Z,934.93
2019-05-20T04:42:20.887Z,934.94
2019-05-20T04:43:20.683Z,934.94
2019-05-20T04:44:20.740Z,934.96
2019-05-20T04:45:20.683Z,934.98
2019-05-20T04:46:20.663Z,934.97
2019-05-20T04:47:20.653Z,934.95
2019-05-20T04:48:21.035Z,934.93
2019-05-20T04:49:20.654Z,934.95
2019-05-20T04:50:20.614Z,934.92
2019-05-20T04:51:20.612Z,934.94
2019-05-20T04:52:20.609Z,934.93
2019-05-20T04:53:20.597Z,934.90
2019-05-20T04:54:20.868Z,934.90
2019-05-20T04:55:20.580Z,934.88
2019-05-20T04:56:20.543Z,934.84
2019-05-20T04:57:20.560Z,934.87
2019-05-20T04:58:20.542Z,934.85
2019-05-20T04:59:20.530Z,934.85
2019-05-20T05:00:20.732Z,934.86
2019-05-20T05:01:20.560Z,934.85
2019-05-20T05:02:20.506Z,934.86
2019-05-20T05:03:20.504Z,934.84
2019-05-20T05:04:20.482Z,934.87
2019-05-20T05:05:35.333Z,934.87
2019-05-20T05:06:20.867Z,934.87
2019-05-20T05:07:20.445Z,934.88
2019-05-20T05:08:20.454Z,934.83
2019-05-20T05:09:20.447Z,934.84
2019-05-20T05:10:20.427Z,934.83
2019-05-20T05:11:20.415Z,934.81
2019-05-20T05:12:20.684Z,934.79
2019-05-20T05:13:20.402Z,934.78
2019-05-20T05:14:20.408Z,934.79
2019-05-20T05:15:20.421Z,934.78
2019-05-20T05:16:20.355Z,934.79
2019-05-20T05:17:20.601Z,934.77
2019-05-20T05:18:20.367Z,934.74
2019-05-20T05:19:20.331Z,934.71
2019-05-20T05:20:20.298Z,934.72
2019-05-20T05:21:20.309Z,934.72
2019-05-20T05:22:20.774Z,934.73
2019-05-20T05:23:20.283Z,934.68
2019-05-20T05:24:20.276Z,934.68
2019-05-20T05:25:20.281Z,934.73
2019-05-20T05:26:20.253Z,934.71
2019-05-20T05:27:20.255Z,934.70
2019-05-20T05:28:20.894Z,934.70
2019-05-20T05:29:20.249Z,934.74
2019-05-20T05:30:20.267Z,934.68
2019-05-20T05:31:20.259Z,934.68
2019-05-20T05:32:20.197Z,934.73
2019-05-20T05:33:20.222Z,934.70
2019-05-20T05:34:20.740Z,934.68
2019-05-20T05:35:20.181Z,934.66
2019-05-20T05:36:20.160Z,934.66
2019-05-20T05:37:20.156Z,934.65
2019-05-20T05:38:20.181Z,934.65
2019-05-20T05:39:20.424Z,934.65
2019-05-20T05:40:20.150Z,934.65
2019-05-20T05:41:20.125Z,934.64
2019-05-20T05:42:20.079Z,934.64
2019-05-20T05:43:20.143Z,934.65
2019-05-20T05:44:20.087Z,934.59
2019-05-20T05:45:20.437Z,934.63
2019-05-20T05:46:20.087Z,934.55
2019-05-20T05:47:20.070Z,934.53
2019-05-20T05:48:20.050Z,934.49
2019-05-20T05:49:20.034Z,934.48
2019-05-20T05:50:20.007Z,934.48
2019-05-20T05:51:20.444Z,934.49
2019-05-20T05:52:22.802Z,934.44
2019-05-20T05:53:20.027Z,934.44
2019-05-20T05:54:19.986Z,934.46
2019-05-20T05:55:19.947Z,934.45
2019-05-20T05:56:20.303Z,934.45
2019-05-20T05:57:19.941Z,934.42
2019-05-20T05:58:19.929Z,934.36
2019-05-20T05:59:19.930Z,934.37
2019-05-20T06:00:19.933Z,934.35
2019-05-20T06:01:19.911Z,934.34
2019-05-20T06:02:21.867Z,934.32
2019-05-20T06:03:19.956Z,934.33
2019-05-20T06:04:19.863Z,934.32
2019-05-20T06:05:19.880Z,934.31
2019-05-20T06:06:19.840Z,934.30
2019-05-20T06:07:19.884Z,934.29
2019-05-20T06:08:20.301Z,934.26
2019-05-20T06:09:19.829Z,934.28
2019-05-20T06:10:19.871Z,934.29
2019-05-20T06:11:19.806Z,934.25
2019-05-20T06:12:19.785Z,934.30
2019-05-20T06:13:19.783Z,934.32
2019-05-20T06:14:20.054Z,934.36
2019-05-20T06:15:19.744Z,934.38
2019-05-20T06:16:35.398Z,934.40
2019-05-20T06:17:19.725Z,934.39
2019-05-20T06:18:19.724Z,934.39
2019-05-20T06:19:19.727Z,934.37
2019-05-20T06:20:20.040Z,934.37
2019-05-20T06:21:19.701Z,934.37
2019-05-20T06:22:19.691Z,934.33
2019-05-20T06:23:19.688Z,934.37
2019-05-20T06:24:19.671Z,934.36
2019-05-20T06:25:19.636Z,934.34
2019-05-20T06:26:20.052Z,934.34
2019-05-20T06:27:19.644Z,934.33
2019-05-20T06:28:19.623Z,934.35
2019-05-20T06:29:19.611Z,934.36
2019-05-20T06:30:19.615Z,934.41
2019-05-20T06:31:19.608Z,934.39
2019-05-20T06:32:19.787Z,934.41
2019-05-20T06:33:19.581Z,934.42
2019-05-20T06:34:19.564Z,934.41
2019-05-20T06:35:19.571Z,934.46
2019-05-20T06:36:26.785Z,934.47
2019-05-20T06:37:19.576Z,934.49
2019-05-20T06:38:19.763Z,934.49
2019-05-20T06:39:19.517Z,934.47
2019-05-20T06:40:19.514Z,934.46
2019-05-20T06:41:19.506Z,934.42
2019-05-20T06:42:19.482Z,934.41
2019-05-20T06:43:19.462Z,934.39
2019-05-20T06:44:19.818Z,934.36
2019-05-20T06:45:19.486Z,934.37
2019-05-20T06:46:19.457Z,934.36
2019-05-20T06:47:19.441Z,934.34
2019-05-20T06:48:19.437Z,934.37
2019-05-20T06:49:19.418Z,934.35
2019-05-20T06:50:19.749Z,934.32
2019-05-20T06:51:19.394Z,934.31
2019-05-20T06:52:34.902Z,934.33
2019-05-20T06:53:19.410Z,934.32
2019-05-20T06:54:19.382Z,934.30
2019-05-20T06:55:19.344Z,934.33
2019-05-20T06:56:19.583Z,934.37
2019-05-20T06:57:19.333Z,934.36
2019-05-20T06:58:19.297Z,934.37
2019-05-20T06:59:19.334Z,934.30
2019-05-20T07:00:19.298Z,934.29
2019-05-20T07:01:19.597Z,934.33
2019-05-20T07:02:19.271Z,934.32
2019-05-20T07:03:19.263Z,934.27
2019-05-20T07:04:19.301Z,934.30
2019-05-20T07:05:19.267Z,934.27
2019-05-20T07:06:19.249Z,934.29
2019-05-20T07:07:21.145Z,934.20
2019-05-20T07:08:19.220Z,934.22
2019-05-20T07:09:19.225Z,934.22
2019-05-20T07:10:19.222Z,934.17
2019-05-20T07:11:19.196Z,934.17
2019-05-20T07:12:19.189Z,934.17
2019-05-20T07:13:19.449Z,934.16
2019-05-20T07:14:19.202Z,934.15
2019-05-20T07:15:19.203Z,934.15
2019-05-20T07:16:19.190Z,934.12
2019-05-20T07:17:19.176Z,934.12
2019-05-20T07:18:19.120Z,934.12
2019-05-20T07:19:19.559Z,934.14
2019-05-20T07:20:19.101Z,934.17
2019-05-20T07:21:19.100Z,934.16
2019-05-20T07:22:19.093Z,934.11
2019-05-20T07:23:19.080Z,934.11
2019-05-20T07:24:19.069Z,934.11
2019-05-20T07:25:19.271Z,934.06
2019-05-20T07:26:19.033Z,934.07
2019-05-20T07:27:19.048Z,934.04
2019-05-20T07:28:19.021Z,934.03
2019-05-20T07:29:19.008Z,934.00
2019-05-20T07:30:19.360Z,934.00
2019-05-20T07:31:18.982Z,933.97
2019-05-20T07:32:18.987Z,933.96
2019-05-20T07:33:18.972Z,933.96
2019-05-20T07:34:18.978Z,933.95
2019-05-20T07:35:29.525Z,933.95
2019-05-20T07:36:19.172Z,933.95
2019-05-20T07:37:18.939Z,933.94
2019-05-20T07:38:18.947Z,933.92
2019-05-20T07:39:18.915Z,933.94
2019-05-20T07:40:18.917Z,933.95
2019-05-20T07:41:19.244Z,933.93
2019-05-20T07:42:18.894Z,933.92
2019-05-20T07:43:18.857Z,933.92
2019-05-20T07:44:18.861Z,933.93
2019-05-20T07:45:18.866Z,933.92
2019-05-20T07:46:19.048Z,933.93
2019-05-20T07:47:18.849Z,933.94
2019-05-20T07:48:18.856Z,933.94
2019-05-20T07:49:18.811Z,933.97
2019-05-20T07:50:18.819Z,933.94
2019-05-20T07:51:18.796Z,933.95
2019-05-20T07:52:19.037Z,933.98
2019-05-20T07:53:18.787Z,933.97
2019-05-20T07:54:18.756Z,933.98
2019-05-20T07:55:18.747Z,934.00
2019-05-20T07:56:18.733Z,933.94
2019-05-20T07:57:18.726Z,933.99
2019-05-20T07:58:19.214Z,933.98
2019-05-20T07:59:18.713Z,934.02
2019-05-20T08:00:18.746Z,934.00
2019-05-20T08:01:18.704Z,933.99
2019-05-20T08:02:18.695Z,933.99
2019-05-20T08:03:18.690Z,934.02
2019-05-20T08:04:18.969Z,934.04
2019-05-20T08:05:18.635Z,934.04
2019-05-20T08:06:18.654Z,934.04
2019-05-20T08:07:29.990Z,934.05
2019-05-20T08:08:18.669Z,934.05
2019-05-20T08:09:18.619Z,934.05
2019-05-20T08:10:18.797Z,934.08
2019-05-20T08:11:18.646Z,934.06
2019-05-20T08:12:18.587Z,934.09
2019-05-20T08:13:18.577Z,934.04
2019-05-20T08:14:18.587Z,934.02
2019-05-20T08:15:18.561Z,934.03
2019-05-20T08:16:19.049Z,934.02
2019-05-20T08:17:18.535Z,934.01
2019-05-20T08:18:20.267Z,934.04
2019-05-20T08:19:18.520Z,934.05
2019-05-20T08:20:18.510Z,934.07
2019-05-20T08:21:18.605Z,934.11
2019-05-20T08:22:18.716Z,934.09
2019-05-20T08:23:18.475Z,934.09
2019-05-20T08:24:18.460Z,934.14
2019-05-20T08:25:18.472Z,934.13
2019-05-20T08:26:18.427Z,934.15
2019-05-20T08:27:18.685Z,934.14
2019-05-20T08:28:18.410Z,934.16
2019-05-20T08:29:18.397Z,934.12
2019-05-20T08:30:18.422Z,934.19
2019-05-20T08:31:18.375Z,934.19
2019-05-20T08:32:18.387Z,934.17
2019-05-20T08:33:18.744Z,934.22
2019-05-20T08:34:18.374Z,934.20
2019-05-20T08:35:18.370Z,934.22
2019-05-20T08:36:18.344Z,934.24
2019-05-20T08:37:18.347Z,934.27
2019-05-20T08:38:18.560Z,934.28
2019-05-20T08:39:18.315Z,934.28
2019-05-20T08:40:18.293Z,934.28
2019-05-20T08:41:18.303Z,934.26
2019-05-20T08:42:18.267Z,934.28
2019-05-20T08:43:18.291Z,934.32
2019-05-20T08:44:18.532Z,934.33
2019-05-20T08:45:18.257Z,934.31
2019-05-20T08:46:18.273Z,934.32
2019-05-20T08:47:18.231Z,934.34
2019-05-20T08:48:18.217Z,934.34
2019-05-20T08:49:18.259Z,934.36
2019-05-20T08:50:18.649Z,934.34
2019-05-20T08:51:18.193Z,934.35
2019-05-20T08:52:18.203Z,934.38
2019-05-20T08:53:18.176Z,934.42
2019-05-20T08:54:18.166Z,934.44
2019-05-20T08:55:18.157Z,934.43
2019-05-20T08:56:18.387Z,934.45
2019-05-20T08:57:18.180Z,934.47
2019-05-20T08:58:18.157Z,934.52
2019-05-20T08:59:18.152Z,934.54
2019-05-20T09:00:22.955Z,934.59
2019-05-20T09:01:18.496Z,934.58
2019-05-20T09:02:18.433Z,934.60
2019-05-20T09:03:18.063Z,934.60
2019-05-20T09:04:18.101Z,934.64
2019-05-20T09:05:18.098Z,934.61
2019-05-20T09:06:20.844Z,934.61
2019-05-20T09:07:18.020Z,934.62
2019-05-20T09:08:18.021Z,934.63
2019-05-20T09:09:18.001Z,934.64
2019-05-20T09:10:18.460Z,934.66
2019-05-20T09:11:18.257Z,934.64
2019-05-20T09:12:18.031Z,934.64
2019-05-20T09:13:17.987Z,934.62
2019-05-20T09:14:17.965Z,934.63
2019-05-20T09:15:17.978Z,934.67
2019-05-20T09:16:18.238Z,934.66
2019-05-20T09:17:17.992Z,934.67
2019-05-20T09:18:17.944Z,934.67
2019-05-20T09:19:17.909Z,934.70
2019-05-20T09:20:17.897Z,934.68
2019-05-20T09:21:18.439Z,934.65
2019-05-20T09:22:17.902Z,934.68
2019-05-20T09:23:17.873Z,934.68
2019-05-20T09:24:18.948Z,934.69
2019-05-20T09:25:17.838Z,934.67
2019-05-20T09:26:17.850Z,934.68
2019-05-20T09:27:18.613Z,934.66
2019-05-20T09:28:17.846Z,934.69
2019-05-20T09:29:17.823Z,934.68
2019-05-20T09:30:17.827Z,934.67
2019-05-20T09:31:17.812Z,934.65
2019-05-20T09:32:17.805Z,934.64
2019-05-20T09:33:18.094Z,934.64
2019-05-20T09:34:17.794Z,934.68
2019-05-20T09:35:17.753Z,934.67
2019-05-20T09:36:17.768Z,934.65
2019-05-20T09:37:17.731Z,934.66
2019-05-20T09:38:20.915Z,934.73
2019-05-20T09:39:17.990Z,934.75
2019-05-20T09:40:17.693Z,934.74
2019-05-20T09:41:17.695Z,934.76
2019-05-20T09:42:17.732Z,934.83
2019-05-20T09:43:17.692Z,934.84
2019-05-20T09:44:17.679Z,934.84
2019-05-20T09:45:17.893Z,934.87
2019-05-20T09:46:17.650Z,934.86
2019-05-20T09:47:17.636Z,934.88
2019-05-20T09:48:17.633Z,934.84
2019-05-20T09:49:17.611Z,934.84
2019-05-20T09:50:17.606Z,934.87
2019-05-20T09:51:18.006Z,934.83
2019-05-20T09:52:17.584Z,934.84
2019-05-20T09:53:17.624Z,934.87
2019-05-20T09:54:17.572Z,934.90
2019-05-20T09:55:17.612Z,934.87
2019-05-20T09:56:17.541Z,934.91
2019-05-20T09:57:18.151Z,934.91
2019-05-20T09:58:17.511Z,934.90
2019-05-20T09:59:17.528Z,934.88
2019-05-20T10:00:17.505Z,934.89
2019-05-20T10:01:17.487Z,934.89
2019-05-20T10:02:17.491Z,934.88
2019-05-20T10:03:17.771Z,934.90
2019-05-20T10:04:17.436Z,934.90
2019-05-20T10:05:17.462Z,934.89
2019-05-20T10:06:17.466Z,934.87
2019-05-20T10:07:17.444Z,934.87
2019-05-20T10:08:17.419Z,934.94
2019-05-20T10:09:17.775Z,934.92
2019-05-20T10:10:17.382Z,934.92
2019-05-20T10:11:17.424Z,934.90
2019-05-20T10:12:17.371Z,934.94
2019-05-20T10:13:17.367Z,934.97
2019-05-20T10:14:17.350Z,934.94
2019-05-20T10:15:17.693Z,934.97
2019-05-20T10:16:17.373Z,934.98
2019-05-20T10:17:17.322Z,934.95
2019-05-20T10:18:35.614Z,934.95
2019-05-20T10:19:17.303Z,934.98
2019-05-20T10:20:17.642Z,935.00
2019-05-20T10:21:17.297Z,935.06
2019-05-20T10:22:17.342Z,935.05
2019-05-20T10:23:17.254Z,935.03
2019-05-20T10:24:17.248Z,935.04
2019-05-20T10:25:17.647Z,935.09
2019-05-20T10:26:17.240Z,935.06
2019-05-20T10:27:17.210Z,935.08
2019-05-20T10:28:17.240Z,935.09
2019-05-20T10:29:17.183Z,935.09
2019-05-20T10:30:17.385Z,935.08
2019-05-20T10:31:17.200Z,935.05
2019-05-20T10:32:17.157Z,935.08
2019-05-20T10:33:17.168Z,935.05
2019-05-20T10:34:17.159Z,935.07
2019-05-20T10:35:17.450Z,935.09
2019-05-20T10:36:17.133Z,935.06
2019-05-20T10:37:17.123Z,935.05
2019-05-20T10:38:17.123Z,935.10
2019-05-20T10:39:17.117Z,935.07
2019-05-20T10:40:17.750Z,935.08
2019-05-20T10:41:17.102Z,935.11
2019-05-20T10:42:17.101Z,935.14
2019-05-20T10:43:17.054Z,935.19
2019-05-20T10:44:17.049Z,935.17
2019-05-20T10:45:17.053Z,935.20
2019-05-20T10:46:17.217Z,935.22
2019-05-20T10:47:17.023Z,935.21
2019-05-20T10:48:17.025Z,935.26
2019-05-20T10:49:17.019Z,935.30
2019-05-20T10:50:16.968Z,935.28
2019-05-20T10:51:17.369Z,935.30
2019-05-20T10:52:17.005Z,935.36
2019-05-20T10:53:16.970Z,935.35
2019-05-20T10:54:16.955Z,935.34
2019-05-20T10:55:16.936Z,935.35
2019-05-20T10:56:17.253Z,935.34
2019-05-20T10:57:16.920Z,935.35
2019-05-20T10:58:16.901Z,935.34
2019-05-20T10:59:16.944Z,935.37
2019-05-20T11:00:16.893Z,935.40
2019-05-20T11:01:16.856Z,935.41
2019-05-20T11:02:17.178Z,935.38
2019-05-20T11:03:16.842Z,935.36
2019-05-20T11:04:16.851Z,935.36
2019-05-20T11:05:16.828Z,935.39
2019-05-20T11:06:16.852Z,935.36
2019-05-20T11:07:16.833Z,935.40
2019-05-20T11:08:17.156Z,935.44
2019-05-20T11:09:16.829Z,935.43
2019-05-20T11:10:16.789Z,935.44
2019-05-20T11:11:16.760Z,935.46
2019-05-20T11:12:16.777Z,935.46
2019-05-20T11:13:16.774Z,935.46
2019-05-20T11:14:17.185Z,935.47
2019-05-20T11:15:16.724Z,935.51
2019-05-20T11:16:16.710Z,935.52
2019-05-20T11:17:16.766Z,935.50
2019-05-20T11:18:16.712Z,935.49
2019-05-20T11:19:16.663Z,935.52
2019-05-20T11:20:16.973Z,935.50
2019-05-20T11:21:16.675Z,935.57
2019-05-20T11:22:16.666Z,935.59
2019-05-20T11:23:16.636Z,935.58
2019-05-20T11:24:16.691Z,935.60
2019-05-20T11:25:16.670Z,935.63
2019-05-20T11:26:16.871Z,935.64
2019-05-20T11:27:16.601Z,935.69
2019-05-20T11:28:16.586Z,935.73
2019-05-20T11:29:16.604Z,935.72
2019-05-20T11:30:16.572Z,935.78
2019-05-20T11:31:16.930Z,935.81
2019-05-20T11:32:16.555Z,935.83
2019-05-20T11:33:16.550Z,935.83
2019-05-20T11:34:16.533Z,935.82
2019-05-20T11:35:16.544Z,935.82
2019-05-20T11:36:16.518Z,935.81
2019-05-20T11:37:16.820Z,935.83
2019-05-20T11:38:16.508Z,935.79
2019-05-20T11:39:31.234Z,935.85
2019-05-20T11:40:16.488Z,935.86
2019-05-20T11:41:16.467Z,935.91
2019-05-20T11:42:16.466Z,935.87
2019-05-20T11:43:16.453Z,935.91
2019-05-20T11:44:16.434Z,935.92
2019-05-20T11:45:16.455Z,935.91
2019-05-20T11:46:16.412Z,935.91
2019-05-20T11:47:16.399Z,935.94
2019-05-20T11:48:16.389Z,935.97
2019-05-20T11:49:16.391Z,936.01
2019-05-20T11:50:16.502Z,936.01
2019-05-20T11:51:16.372Z,936.01
2019-05-20T11:52:16.380Z,936.03
2019-05-20T11:53:16.348Z,936.06
2019-05-20T11:54:16.336Z,936.06
2019-05-20T11:55:16.345Z,936.08
2019-05-20T11:56:16.357Z,936.12
2019-05-20T11:57:16.326Z,936.14
2019-05-20T11:58:16.686Z,936.13
2019-05-20T11:59:16.574Z,936.12
2019-05-20T12:00:16.294Z,936.14
2019-05-20T12:01:16.288Z,936.11
2019-05-20T12:02:16.262Z,936.11
2019-05-20T12:03:16.238Z,936.12
2019-05-20T12:04:16.247Z,936.14
2019-05-20T12:05:16.243Z,936.16
2019-05-20T12:06:16.245Z,936.18
2019-05-20T12:07:16.198Z,936.18
2019-05-20T12:08:16.205Z,936.25
2019-05-20T12:09:16.194Z,936.26
2019-05-20T12:10:16.167Z,936.22
2019-05-20T12:11:16.224Z,936.25
2019-05-20T12:12:16.171Z,936.24
2019-05-20T12:13:16.181Z,936.27
2019-05-20T12:14:16.140Z,936.26
2019-05-20T12:15:16.136Z,936.27
2019-05-20T12:16:16.162Z,936.27
2019-05-20T12:17:16.118Z,936.29
2019-05-20T12:18:16.108Z,936.32
2019-05-20T12:19:16.189Z,936.27
2019-05-20T12:20:16.083Z,936.31
2019-05-20T12:21:16.082Z,936.31
2019-05-20T12:22:16.059Z,936.30
2019-05-20T12:23:16.058Z,936.27
2019-05-20T12:24:16.232Z,936.26
2019-05-20T12:25:16.030Z,936.25
2019-05-20T12:26:16.073Z,936.32
2019-05-20T12:27:16.092Z,936.32
2019-05-20T12:28:16.004Z,936.34